sensor_id;sensor_type;location;lat;lon;timestamp;P1;durP1;ratioP1;P2;durP2;ratioP2
48925;SDS011;39838;59.938;30.642;2022-09-01T00:01:09;4.22;;;1.90;;
48925;SDS011;39838;59.938;30.642;2022-09-01T00:03:39;3.22;;;2.10;;
48925;SDS011;39838;59.938;30.642;2022-09-01T00:06:06;3.65;;;2.20;;
48925;SDS011;39838;59.938;30.642;2022-09-01T00:08:37;3.40;;;2.00;;
48925;SDS011;39838;59.938;30.642;2022-09-01T00:11:04;2.88;;;1.90;;
48925;SDS011;39838;59.938;30.642;2022-09-01T00:13:31;1.50;;;1.40;;
48925;SDS011;39838;59.938;30.642;2022-09-01T00:15:59;2.90;;;1.60;;
48925;SDS011;39838;59.938;30.642;2022-09-01T00:18:28;4.55;;;1.65;;
48925;SDS011;39838;59.938;30.642;2022-09-01T00:20:57;3.85;;;1.80;;
48925;SDS011;39838;59.938;30.642;2022-09-01T00:23:24;1.98;;;1.77;;
48925;SDS011;39838;59.938;30.642;2022-09-01T00:25:53;1.70;;;1.60;;
48925;SDS011;39838;59.938;30.642;2022-09-01T00:28:21;1.70;;;1.60;;
48925;SDS011;39838;59.938;30.642;2022-09-01T00:30:48;3.20;;;1.80;;
48925;SDS011;39838;59.938;30.642;2022-09-01T00:33:15;1.40;;;1.30;;
48925;SDS011;39838;59.938;30.642;2022-09-01T00:35:42;1.40;;;1.30;;
48925;SDS011;39838;59.938;30.642;2022-09-01T00:38:10;2.03;;;1.38;;
48925;SDS011;39838;59.938;30.642;2022-09-01T00:40:37;1.38;;;1.27;;
48925;SDS011;39838;59.938;30.642;2022-09-01T00:43:12;1.63;;;1.40;;
48925;SDS011;39838;59.938;30.642;2022-09-01T00:45:41;1.42;;;1.33;;
48925;SDS011;39838;59.938;30.642;2022-09-01T00:48:08;1.42;;;1.20;;
48925;SDS011;39838;59.938;30.642;2022-09-01T00:50:36;2.83;;;1.27;;
48925;SDS011;39838;59.938;30.642;2022-09-01T00:53:04;1.42;;;1.17;;
48925;SDS011;39838;59.938;30.642;2022-09-01T00:55:33;4.18;;;1.23;;
48925;SDS011;39838;59.938;30.642;2022-09-01T00:58:03;1.17;;;1.08;;
48925;SDS011;39838;59.938;30.642;2022-09-01T01:00:38;1.00;;;0.90;;
48925;SDS011;39838;59.938;30.642;2022-09-01T01:03:07;1.85;;;1.08;;
48925;SDS011;39838;59.938;30.642;2022-09-01T01:05:36;1.20;;;0.98;;
48925;SDS011;39838;59.938;30.642;2022-09-01T01:08:06;0.80;;;0.80;;
48925;SDS011;39838;59.938;30.642;2022-09-01T01:10:37;0.95;;;0.95;;
48925;SDS011;39838;59.938;30.642;2022-09-01T01:13:07;0.90;;;0.90;;
48925;SDS011;39838;59.938;30.642;2022-09-01T01:15:39;1.20;;;1.10;;
48925;SDS011;39838;59.938;30.642;2022-09-01T01:18:08;1.30;;;1.20;;
48925;SDS011;39838;59.938;30.642;2022-09-01T01:20:36;1.50;;;1.40;;
48925;SDS011;39838;59.938;30.642;2022-09-01T01:23:23;4.28;;;1.50;;
48925;SDS011;39838;59.938;30.642;2022-09-01T01:25:58;2.70;;;1.38;;
48925;SDS011;39838;59.938;30.642;2022-09-01T01:28:26;1.55;;;1.45;;
48925;SDS011;39838;59.938;30.642;2022-09-01T01:30:57;1.50;;;1.40;;
48925;SDS011;39838;59.938;30.642;2022-09-01T01:33:26;1.45;;;1.35;;
48925;SDS011;39838;59.938;30.642;2022-09-01T01:35:56;1.60;;;1.38;;
48925;SDS011;39838;59.938;30.642;2022-09-01T01:38:24;1.73;;;1.38;;
48925;SDS011;39838;59.938;30.642;2022-09-01T01:40:52;3.05;;;1.45;;
48925;SDS011;39838;59.938;30.642;2022-09-01T01:43:22;1.92;;;1.40;;
48925;SDS011;39838;59.938;30.642;2022-09-01T01:45:51;2.65;;;1.50;;
48925;SDS011;39838;59.938;30.642;2022-09-01T01:48:20;1.30;;;1.20;;
48925;SDS011;39838;59.938;30.642;2022-09-01T01:50:48;2.03;;;1.40;;
48925;SDS011;39838;59.938;30.642;2022-09-01T01:53:17;1.80;;;1.65;;
48925;SDS011;39838;59.938;30.642;2022-09-01T01:55:44;1.83;;;1.55;;
48925;SDS011;39838;59.938;30.642;2022-09-01T01:58:13;3.67;;;1.55;;
48925;SDS011;39838;59.938;30.642;2022-09-01T02:00:42;3.88;;;1.90;;
48925;SDS011;39838;59.938;30.642;2022-09-01T02:03:11;2.13;;;1.50;;
48925;SDS011;39838;59.938;30.642;2022-09-01T02:05:41;4.63;;;1.50;;
48925;SDS011;39838;59.938;30.642;2022-09-01T02:08:09;2.75;;;1.70;;
48925;SDS011;39838;59.938;30.642;2022-09-01T02:10:38;1.77;;;1.35;;
48925;SDS011;39838;59.938;30.642;2022-09-01T02:13:09;1.83;;;1.42;;
48925;SDS011;39838;59.938;30.642;2022-09-01T02:15:41;1.60;;;1.40;;
48925;SDS011;39838;59.938;30.642;2022-09-01T02:18:12;1.95;;;1.55;;
48925;SDS011;39838;59.938;30.642;2022-09-01T02:20:42;2.30;;;1.70;;
48925;SDS011;39838;59.938;30.642;2022-09-01T02:23:11;2.42;;;1.73;;
48925;SDS011;39838;59.938;30.642;2022-09-01T02:25:43;2.67;;;1.77;;
48925;SDS011;39838;59.938;30.642;2022-09-01T02:28:12;4.30;;;1.60;;
48925;SDS011;39838;59.938;30.642;2022-09-01T02:30:43;2.08;;;1.60;;
48925;SDS011;39838;59.938;30.642;2022-09-01T02:33:13;1.77;;;1.60;;
48925;SDS011;39838;59.938;30.642;2022-09-01T02:35:43;1.50;;;1.40;;
48925;SDS011;39838;59.938;30.642;2022-09-01T02:38:11;1.40;;;1.30;;
48925;SDS011;39838;59.938;30.642;2022-09-01T02:40:39;1.70;;;1.60;;
48925;SDS011;39838;59.938;30.642;2022-09-01T02:43:07;1.60;;;1.48;;
48925;SDS011;39838;59.938;30.642;2022-09-01T02:45:36;2.97;;;1.60;;
48925;SDS011;39838;59.938;30.642;2022-09-01T02:48:05;1.63;;;1.50;;
48925;SDS011;39838;59.938;30.642;2022-09-01T02:50:34;2.88;;;1.63;;
48925;SDS011;39838;59.938;30.642;2022-09-01T02:53:01;2.50;;;1.90;;
48925;SDS011;39838;59.938;30.642;2022-09-01T02:55:34;1.63;;;1.52;;
48925;SDS011;39838;59.938;30.642;2022-09-01T02:58:01;1.50;;;1.40;;
48925;SDS011;39838;59.938;30.642;2022-09-01T03:00:28;1.70;;;1.55;;
48925;SDS011;39838;59.938;30.642;2022-09-01T03:02:57;2.03;;;1.60;;
48925;SDS011;39838;59.938;30.642;2022-09-01T03:05:28;1.77;;;1.58;;
48925;SDS011;39838;59.938;30.642;2022-09-01T03:08:03;1.60;;;1.50;;
48925;SDS011;39838;59.938;30.642;2022-09-01T03:10:36;1.85;;;1.70;;
48925;SDS011;39838;59.938;30.642;2022-09-01T03:13:06;3.22;;;1.30;;
48925;SDS011;39838;59.938;30.642;2022-09-01T03:15:35;1.58;;;1.25;;
48925;SDS011;39838;59.938;30.642;2022-09-01T03:18:03;1.90;;;1.52;;
48925;SDS011;39838;59.938;30.642;2022-09-01T03:20:34;3.00;;;1.77;;
48925;SDS011;39838;59.938;30.642;2022-09-01T03:23:05;1.55;;;1.45;;
48925;SDS011;39838;59.938;30.642;2022-09-01T03:25:34;1.70;;;1.40;;
48925;SDS011;39838;59.938;30.642;2022-09-01T03:28:03;1.83;;;1.60;;
48925;SDS011;39838;59.938;30.642;2022-09-01T03:30:31;2.80;;;1.55;;
48925;SDS011;39838;59.938;30.642;2022-09-01T03:33:00;2.33;;;1.58;;
48925;SDS011;39838;59.938;30.642;2022-09-01T03:35:28;3.00;;;1.40;;
48925;SDS011;39838;59.938;30.642;2022-09-01T03:37:57;1.85;;;1.67;;
48925;SDS011;39838;59.938;30.642;2022-09-01T03:40:26;2.67;;;1.30;;
48925;SDS011;39838;59.938;30.642;2022-09-01T03:42:56;1.70;;;1.40;;
48925;SDS011;39838;59.938;30.642;2022-09-01T03:45:24;1.50;;;1.40;;
48925;SDS011;39838;59.938;30.642;2022-09-01T03:47:51;2.55;;;1.60;;
48925;SDS011;39838;59.938;30.642;2022-09-01T03:50:20;2.38;;;1.65;;
48925;SDS011;39838;59.938;30.642;2022-09-01T03:52:49;1.48;;;1.38;;
48925;SDS011;39838;59.938;30.642;2022-09-01T03:55:21;2.25;;;1.58;;
48925;SDS011;39838;59.938;30.642;2022-09-01T03:57:51;2.78;;;1.60;;
48925;SDS011;39838;59.938;30.642;2022-09-01T04:00:20;2.72;;;1.50;;
48925;SDS011;39838;59.938;30.642;2022-09-01T04:02:50;2.58;;;1.50;;
48925;SDS011;39838;59.938;30.642;2022-09-01T04:05:21;3.65;;;1.48;;
48925;SDS011;39838;59.938;30.642;2022-09-01T04:07:49;1.98;;;1.70;;
48925;SDS011;39838;59.938;30.642;2022-09-01T04:10:17;2.47;;;1.70;;
48925;SDS011;39838;59.938;30.642;2022-09-01T04:12:46;4.00;;;1.77;;
48925;SDS011;39838;59.938;30.642;2022-09-01T04:15:14;1.60;;;1.50;;
48925;SDS011;39838;59.938;30.642;2022-09-01T04:17:42;4.00;;;1.52;;
48925;SDS011;39838;59.938;30.642;2022-09-01T04:20:27;1.37;;;1.27;;
48925;SDS011;39838;59.938;30.642;2022-09-01T04:23:04;2.72;;;2.00;;
48925;SDS011;39838;59.938;30.642;2022-09-01T04:25:35;1.63;;;1.50;;
48925;SDS011;39838;59.938;30.642;2022-09-01T04:28:04;1.58;;;1.48;;
48925;SDS011;39838;59.938;30.642;2022-09-01T04:33:06;1.70;;;1.33;;
48925;SDS011;39838;59.938;30.642;2022-09-01T04:35:36;1.90;;;1.50;;
48925;SDS011;39838;59.938;30.642;2022-09-01T04:38:04;5.05;;;1.55;;
48925;SDS011;39838;59.938;30.642;2022-09-01T04:40:35;4.75;;;1.70;;
48925;SDS011;39838;59.938;30.642;2022-09-01T04:43:05;2.50;;;1.65;;
48925;SDS011;39838;59.938;30.642;2022-09-01T04:45:34;2.15;;;1.55;;
48925;SDS011;39838;59.938;30.642;2022-09-01T04:48:02;5.10;;;1.98;;
48925;SDS011;39838;59.938;30.642;2022-09-01T04:50:30;1.85;;;1.42;;
48925;SDS011;39838;59.938;30.642;2022-09-01T04:52:59;2.40;;;1.67;;
48925;SDS011;39838;59.938;30.642;2022-09-01T04:55:27;2.03;;;1.38;;
48925;SDS011;39838;59.938;30.642;2022-09-01T04:57:56;2.92;;;1.40;;
48925;SDS011;39838;59.938;30.642;2022-09-01T05:00:26;1.92;;;1.42;;
48925;SDS011;39838;59.938;30.642;2022-09-01T05:02:57;3.08;;;1.55;;
48925;SDS011;39838;59.938;30.642;2022-09-01T05:05:34;1.92;;;1.40;;
48925;SDS011;39838;59.938;30.642;2022-09-01T05:08:04;4.88;;;1.45;;
48925;SDS011;39838;59.938;30.642;2022-09-01T05:10:32;3.08;;;1.40;;
48925;SDS011;39838;59.938;30.642;2022-09-01T05:13:01;2.22;;;1.42;;
48925;SDS011;39838;59.938;30.642;2022-09-01T05:15:36;2.28;;;1.40;;
48925;SDS011;39838;59.938;30.642;2022-09-01T05:18:04;3.60;;;1.60;;
48925;SDS011;39838;59.938;30.642;2022-09-01T05:20:37;2.80;;;1.20;;
48925;SDS011;39838;59.938;30.642;2022-09-01T05:23:07;1.80;;;1.40;;
48925;SDS011;39838;59.938;30.642;2022-09-01T05:25:38;2.58;;;1.33;;
48925;SDS011;39838;59.938;30.642;2022-09-01T05:28:07;1.55;;;1.40;;
48925;SDS011;39838;59.938;30.642;2022-09-01T05:30:37;2.13;;;1.30;;
48925;SDS011;39838;59.938;30.642;2022-09-01T05:33:06;2.25;;;1.50;;
48925;SDS011;39838;59.938;30.642;2022-09-01T05:35:36;1.42;;;1.20;;
48925;SDS011;39838;59.938;30.642;2022-09-01T05:38:08;2.03;;;1.45;;
48925;SDS011;39838;59.938;30.642;2022-09-01T05:40:37;2.20;;;1.10;;
48925;SDS011;39838;59.938;30.642;2022-09-01T05:43:06;3.33;;;1.40;;
48925;SDS011;39838;59.938;30.642;2022-09-01T05:45:39;2.60;;;1.45;;
48925;SDS011;39838;59.938;30.642;2022-09-01T05:48:09;1.60;;;1.50;;
48925;SDS011;39838;59.938;30.642;2022-09-01T05:50:46;5.20;;;1.52;;
48925;SDS011;39838;59.938;30.642;2022-09-01T05:53:14;2.03;;;1.63;;
48925;SDS011;39838;59.938;30.642;2022-09-01T05:55:42;2.33;;;1.35;;
48925;SDS011;39838;59.938;30.642;2022-09-01T05:58:11;2.72;;;1.20;;
48925;SDS011;39838;59.938;30.642;2022-09-01T06:00:42;2.42;;;1.38;;
48925;SDS011;39838;59.938;30.642;2022-09-01T06:03:11;4.18;;;1.42;;
48925;SDS011;39838;59.938;30.642;2022-09-01T06:05:39;1.40;;;1.30;;
48925;SDS011;39838;59.938;30.642;2022-09-01T06:08:07;2.38;;;1.42;;
48925;SDS011;39838;59.938;30.642;2022-09-01T06:10:35;2.05;;;1.40;;
48925;SDS011;39838;59.938;30.642;2022-09-01T06:13:04;2.28;;;1.30;;
48925;SDS011;39838;59.938;30.642;2022-09-01T06:15:33;1.55;;;1.33;;
48925;SDS011;39838;59.938;30.642;2022-09-01T06:18:05;1.42;;;1.23;;
48925;SDS011;39838;59.938;30.642;2022-09-01T06:20:33;2.80;;;1.30;;
48925;SDS011;39838;59.938;30.642;2022-09-01T06:23:04;2.17;;;1.27;;
48925;SDS011;39838;59.938;30.642;2022-09-01T06:25:35;3.20;;;1.30;;
48925;SDS011;39838;59.938;30.642;2022-09-01T06:28:04;3.53;;;1.20;;
48925;SDS011;39838;59.938;30.642;2022-09-01T06:30:32;1.95;;;1.10;;
48925;SDS011;39838;59.938;30.642;2022-09-01T06:33:00;2.38;;;1.38;;
48925;SDS011;39838;59.938;30.642;2022-09-01T06:35:31;2.65;;;1.23;;
48925;SDS011;39838;59.938;30.642;2022-09-01T06:37:59;2.72;;;1.30;;
48925;SDS011;39838;59.938;30.642;2022-09-01T06:40:27;3.05;;;1.50;;
48925;SDS011;39838;59.938;30.642;2022-09-01T06:42:54;2.70;;;1.35;;
48925;SDS011;39838;59.938;30.642;2022-09-01T06:45:24;2.85;;;1.50;;
48925;SDS011;39838;59.938;30.642;2022-09-01T06:47:52;1.48;;;1.38;;
48925;SDS011;39838;59.938;30.642;2022-09-01T06:50:21;5.28;;;1.63;;
48925;SDS011;39838;59.938;30.642;2022-09-01T06:52:50;1.73;;;1.38;;
48925;SDS011;39838;59.938;30.642;2022-09-01T06:55:33;4.10;;;1.50;;
48925;SDS011;39838;59.938;30.642;2022-09-01T06:58:02;2.08;;;1.58;;
48925;SDS011;39838;59.938;30.642;2022-09-01T07:00:31;1.98;;;1.50;;
48925;SDS011;39838;59.938;30.642;2022-09-01T07:03:02;2.70;;;1.70;;
48925;SDS011;39838;59.938;30.642;2022-09-01T07:05:33;2.55;;;1.70;;
48925;SDS011;39838;59.938;30.642;2022-09-01T07:08:05;1.65;;;1.40;;
48925;SDS011;39838;59.938;30.642;2022-09-01T07:10:38;1.38;;;1.27;;
48925;SDS011;39838;59.938;30.642;2022-09-01T07:13:10;1.90;;;1.40;;
48925;SDS011;39838;59.938;30.642;2022-09-01T07:15:46;3.40;;;1.63;;
48925;SDS011;39838;59.938;30.642;2022-09-01T07:18:15;2.85;;;1.20;;
48925;SDS011;39838;59.938;30.642;2022-09-01T07:20:42;2.28;;;1.33;;
48925;SDS011;39838;59.938;30.642;2022-09-01T07:23:14;2.28;;;1.45;;
48925;SDS011;39838;59.938;30.642;2022-09-01T07:25:43;2.13;;;1.20;;
48925;SDS011;39838;59.938;30.642;2022-09-01T07:28:12;1.83;;;1.10;;
48925;SDS011;39838;59.938;30.642;2022-09-01T07:30:40;1.33;;;1.20;;
48925;SDS011;39838;59.938;30.642;2022-09-01T07:33:09;3.38;;;1.30;;
48925;SDS011;39838;59.938;30.642;2022-09-01T07:35:38;3.17;;;1.60;;
48925;SDS011;39838;59.938;30.642;2022-09-01T07:38:06;1.95;;;1.25;;
48925;SDS011;39838;59.938;30.642;2022-09-01T07:40:36;2.65;;;1.20;;
48925;SDS011;39838;59.938;30.642;2022-09-01T07:43:04;2.83;;;1.50;;
48925;SDS011;39838;59.938;30.642;2022-09-01T07:45:34;1.50;;;1.40;;
48925;SDS011;39838;59.938;30.642;2022-09-01T07:48:04;1.42;;;1.33;;
48925;SDS011;39838;59.938;30.642;2022-09-01T07:50:33;8.25;;;1.65;;
48925;SDS011;39838;59.938;30.642;2022-09-01T07:53:01;2.90;;;1.63;;
48925;SDS011;39838;59.938;30.642;2022-09-01T07:55:29;2.25;;;1.40;;
48925;SDS011;39838;59.938;30.642;2022-09-01T07:58:00;4.18;;;1.50;;
48925;SDS011;39838;59.938;30.642;2022-09-01T08:00:27;2.80;;;1.60;;
48925;SDS011;39838;59.938;30.642;2022-09-01T08:02:56;3.33;;;1.48;;
48925;SDS011;39838;59.938;30.642;2022-09-01T08:05:23;2.55;;;1.60;;
48925;SDS011;39838;59.938;30.642;2022-09-01T08:07:51;2.72;;;1.55;;
48925;SDS011;39838;59.938;30.642;2022-09-01T08:10:18;2.05;;;1.50;;
48925;SDS011;39838;59.938;30.642;2022-09-01T08:12:46;3.83;;;1.42;;
48925;SDS011;39838;59.938;30.642;2022-09-01T08:15:15;2.97;;;1.60;;
48925;SDS011;39838;59.938;30.642;2022-09-01T08:17:43;4.22;;;1.63;;
48925;SDS011;39838;59.938;30.642;2022-09-01T08:20:10;2.40;;;1.55;;
48925;SDS011;39838;59.938;30.642;2022-09-01T08:22:38;3.20;;;1.42;;
48925;SDS011;39838;59.938;30.642;2022-09-01T08:25:06;1.50;;;1.40;;
48925;SDS011;39838;59.938;30.642;2022-09-01T08:27:36;3.13;;;1.70;;
48925;SDS011;39838;59.938;30.642;2022-09-01T08:30:05;1.70;;;1.58;;
48925;SDS011;39838;59.938;30.642;2022-09-01T08:32:38;2.95;;;1.33;;
48925;SDS011;39838;59.938;30.642;2022-09-01T08:35:07;1.45;;;1.33;;
48925;SDS011;39838;59.938;30.642;2022-09-01T08:37:35;3.00;;;1.50;;
48925;SDS011;39838;59.938;30.642;2022-09-01T08:40:03;2.65;;;1.50;;
48925;SDS011;39838;59.938;30.642;2022-09-01T08:42:36;3.30;;;1.60;;
48925;SDS011;39838;59.938;30.642;2022-09-01T08:45:18;2.67;;;1.10;;
48925;SDS011;39838;59.938;30.642;2022-09-01T08:47:50;1.80;;;1.50;;
48925;SDS011;39838;59.938;30.642;2022-09-01T08:50:19;1.88;;;1.65;;
48925;SDS011;39838;59.938;30.642;2022-09-01T08:52:48;1.73;;;1.20;;
48925;SDS011;39838;59.938;30.642;2022-09-01T08:55:23;2.67;;;1.42;;
48925;SDS011;39838;59.938;30.642;2022-09-01T08:57:54;3.13;;;1.70;;
48925;SDS011;39838;59.938;30.642;2022-09-01T09:00:23;5.97;;;1.95;;
48925;SDS011;39838;59.938;30.642;2022-09-01T09:03:00;2.97;;;1.95;;
48925;SDS011;39838;59.938;30.642;2022-09-01T09:05:42;1.75;;;1.40;;
48925;SDS011;39838;59.938;30.642;2022-09-01T09:08:26;4.30;;;1.67;;
48925;SDS011;39838;59.938;30.642;2022-09-01T09:11:04;2.90;;;1.50;;
48925;SDS011;39838;59.938;30.642;2022-09-01T09:13:39;2.03;;;1.30;;
48925;SDS011;39838;59.938;30.642;2022-09-01T09:16:15;1.77;;;1.38;;
48925;SDS011;39838;59.938;30.642;2022-09-01T09:18:49;2.28;;;1.35;;
48925;SDS011;39838;59.938;30.642;2022-09-01T09:21:20;1.83;;;1.30;;
48925;SDS011;39838;59.938;30.642;2022-09-01T09:23:53;2.97;;;1.20;;
48925;SDS011;39838;59.938;30.642;2022-09-01T09:26:24;1.98;;;0.93;;
48925;SDS011;39838;59.938;30.642;2022-09-01T09:28:51;2.10;;;1.10;;
48925;SDS011;39838;59.938;30.642;2022-09-01T09:31:29;1.58;;;1.15;;
48925;SDS011;39838;59.938;30.642;2022-09-01T09:34:00;2.13;;;1.23;;
48925;SDS011;39838;59.938;30.642;2022-09-01T09:36:29;1.92;;;1.23;;
48925;SDS011;39838;59.938;30.642;2022-09-01T09:39:09;1.27;;;1.17;;
48925;SDS011;39838;59.938;30.642;2022-09-01T09:41:40;3.00;;;1.30;;
48925;SDS011;39838;59.938;30.642;2022-09-01T09:44:26;1.48;;;1.23;;
48925;SDS011;39838;59.938;30.642;2022-09-01T09:46:54;1.75;;;1.25;;
48925;SDS011;39838;59.938;30.642;2022-09-01T09:49:24;3.38;;;1.23;;
48925;SDS011;39838;59.938;30.642;2022-09-01T09:51:56;2.03;;;1.10;;
48925;SDS011;39838;59.938;30.642;2022-09-01T09:54:37;1.45;;;1.05;;
48925;SDS011;39838;59.938;30.642;2022-09-01T09:57:08;2.05;;;1.20;;
48925;SDS011;39838;59.938;30.642;2022-09-01T09:59:39;3.55;;;1.33;;
48925;SDS011;39838;59.938;30.642;2022-09-01T10:04:54;1.98;;;1.10;;
48925;SDS011;39838;59.938;30.642;2022-09-01T10:07:26;2.38;;;1.30;;
48925;SDS011;39838;59.938;30.642;2022-09-01T10:09:59;2.60;;;1.58;;
48925;SDS011;39838;59.938;30.642;2022-09-01T10:12:29;0.98;;;0.95;;
48925;SDS011;39838;59.938;30.642;2022-09-01T10:14:58;2.67;;;1.33;;
48925;SDS011;39838;59.938;30.642;2022-09-01T10:17:29;1.20;;;1.10;;
48925;SDS011;39838;59.938;30.642;2022-09-01T10:20:03;2.33;;;1.10;;
48925;SDS011;39838;59.938;30.642;2022-09-01T10:22:34;2.00;;;1.27;;
48925;SDS011;39838;59.938;30.642;2022-09-01T10:25:03;1.67;;;1.10;;
48925;SDS011;39838;59.938;30.642;2022-09-01T10:27:34;1.42;;;1.30;;
48925;SDS011;39838;59.938;30.642;2022-09-01T10:30:04;1.00;;;0.98;;
48925;SDS011;39838;59.938;30.642;2022-09-01T10:32:36;1.85;;;1.23;;
48925;SDS011;39838;59.938;30.642;2022-09-01T10:35:09;2.05;;;1.00;;
48925;SDS011;39838;59.938;30.642;2022-09-01T10:37:43;2.05;;;1.33;;
48925;SDS011;39838;59.938;30.642;2022-09-01T10:40:12;2.50;;;1.10;;
48925;SDS011;39838;59.938;30.642;2022-09-01T10:46:09;2.05;;;1.20;;
48925;SDS011;39838;59.938;30.642;2022-09-01T10:49:17;4.30;;;1.30;;
48925;SDS011;39838;59.938;30.642;2022-09-01T10:52:10;2.55;;;1.33;;
48925;SDS011;39838;59.938;30.642;2022-09-01T10:54:51;2.55;;;1.25;;
48925;SDS011;39838;59.938;30.642;2022-09-01T10:57:33;1.73;;;1.23;;
48925;SDS011;39838;59.938;30.642;2022-09-01T11:06:31;1.55;;;1.02;;
48925;SDS011;39838;59.938;30.642;2022-09-01T11:09:16;1.40;;;1.30;;
48925;SDS011;39838;59.938;30.642;2022-09-01T11:11:49;1.85;;;1.15;;
48925;SDS011;39838;59.938;30.642;2022-09-01T11:14:27;1.70;;;1.13;;
48925;SDS011;39838;59.938;30.642;2022-09-01T11:17:09;2.15;;;1.30;;
48925;SDS011;39838;59.938;30.642;2022-09-01T11:19:40;1.50;;;1.20;;
48925;SDS011;39838;59.938;30.642;2022-09-01T11:22:20;2.40;;;1.33;;
48925;SDS011;39838;59.938;30.642;2022-09-01T11:25:04;1.77;;;1.40;;
48925;SDS011;39838;59.938;30.642;2022-09-01T11:27:55;5.35;;;1.42;;
48925;SDS011;39838;59.938;30.642;2022-09-01T11:30:31;2.40;;;1.40;;
48925;SDS011;39838;59.938;30.642;2022-09-01T11:33:05;3.53;;;1.35;;
48925;SDS011;39838;59.938;30.642;2022-09-01T11:35:44;2.58;;;1.48;;
48925;SDS011;39838;59.938;30.642;2022-09-01T11:38:12;2.90;;;1.42;;
48925;SDS011;39838;59.938;30.642;2022-09-01T11:40:43;2.45;;;1.60;;
48925;SDS011;39838;59.938;30.642;2022-09-01T11:43:21;1.73;;;1.50;;
48925;SDS011;39838;59.938;30.642;2022-09-01T11:45:51;3.70;;;2.28;;
48925;SDS011;39838;59.938;30.642;2022-09-01T11:48:27;2.67;;;1.60;;
48925;SDS011;39838;59.938;30.642;2022-09-01T11:50:58;1.95;;;1.48;;
48925;SDS011;39838;59.938;30.642;2022-09-01T11:53:27;3.92;;;1.67;;
48925;SDS011;39838;59.938;30.642;2022-09-01T11:56:10;2.80;;;1.45;;
48925;SDS011;39838;59.938;30.642;2022-09-01T11:58:40;3.83;;;1.45;;
48925;SDS011;39838;59.938;30.642;2022-09-01T12:01:12;3.53;;;1.60;;
48925;SDS011;39838;59.938;30.642;2022-09-01T12:03:42;3.70;;;1.67;;
48925;SDS011;39838;59.938;30.642;2022-09-01T12:06:12;2.83;;;1.30;;
48925;SDS011;39838;59.938;30.642;2022-09-01T12:11:20;4.55;;;1.70;;
48925;SDS011;39838;59.938;30.642;2022-09-01T12:13:58;2.22;;;1.52;;
48925;SDS011;39838;59.938;30.642;2022-09-01T12:16:26;2.33;;;1.63;;
48925;SDS011;39838;59.938;30.642;2022-09-01T12:18:56;2.47;;;2.00;;
48925;SDS011;39838;59.938;30.642;2022-09-01T12:21:25;2.20;;;1.70;;
48925;SDS011;39838;59.938;30.642;2022-09-01T12:24:08;3.25;;;1.80;;
48925;SDS011;39838;59.938;30.642;2022-09-01T12:26:40;2.45;;;1.90;;
48925;SDS011;39838;59.938;30.642;2022-09-01T12:29:07;3.80;;;1.83;;
48925;SDS011;39838;59.938;30.642;2022-09-01T12:31:38;5.18;;;2.35;;
48925;SDS011;39838;59.938;30.642;2022-09-01T12:34:21;3.15;;;1.88;;
48925;SDS011;39838;59.938;30.642;2022-09-01T12:37:01;4.07;;;1.77;;
48925;SDS011;39838;59.938;30.642;2022-09-01T12:39:32;2.60;;;1.77;;
48925;SDS011;39838;59.938;30.642;2022-09-01T12:42:02;4.30;;;1.80;;
48925;SDS011;39838;59.938;30.642;2022-09-01T12:44:33;3.55;;;1.80;;
48925;SDS011;39838;59.938;30.642;2022-09-01T12:47:09;3.17;;;1.98;;
48925;SDS011;39838;59.938;30.642;2022-09-01T12:49:39;3.35;;;1.70;;
48925;SDS011;39838;59.938;30.642;2022-09-01T12:52:09;2.50;;;1.73;;
48925;SDS011;39838;59.938;30.642;2022-09-01T12:54:43;3.50;;;1.77;;
48925;SDS011;39838;59.938;30.642;2022-09-01T12:57:12;3.00;;;1.70;;
48925;SDS011;39838;59.938;30.642;2022-09-01T13:00:13;2.95;;;1.50;;
48925;SDS011;39838;59.938;30.642;2022-09-01T13:02:44;2.40;;;1.80;;
48925;SDS011;39838;59.938;30.642;2022-09-01T13:05:17;1.90;;;1.50;;
48925;SDS011;39838;59.938;30.642;2022-09-01T13:07:48;3.85;;;1.67;;
48925;SDS011;39838;59.938;30.642;2022-09-01T13:10:19;2.88;;;1.75;;
48925;SDS011;39838;59.938;30.642;2022-09-01T13:12:47;2.30;;;1.50;;
48925;SDS011;39838;59.938;30.642;2022-09-01T13:15:15;4.35;;;1.50;;
48925;SDS011;39838;59.938;30.642;2022-09-01T13:17:43;1.98;;;1.58;;
48925;SDS011;39838;59.938;30.642;2022-09-01T13:20:10;2.67;;;1.92;;
48925;SDS011;39838;59.938;30.642;2022-09-01T13:22:38;2.50;;;2.22;;
48925;SDS011;39838;59.938;30.642;2022-09-01T13:25:09;4.13;;;1.83;;
48925;SDS011;39838;59.938;30.642;2022-09-01T13:27:37;2.20;;;1.70;;
48925;SDS011;39838;59.938;30.642;2022-09-01T13:30:11;2.65;;;1.30;;
48925;SDS011;39838;59.938;30.642;2022-09-01T13:32:39;2.08;;;1.40;;
48925;SDS011;39838;59.938;30.642;2022-09-01T13:35:07;4.47;;;1.50;;
48925;SDS011;39838;59.938;30.642;2022-09-01T13:37:35;3.33;;;1.60;;
48925;SDS011;39838;59.938;30.642;2022-09-01T13:40:02;1.80;;;1.40;;
48925;SDS011;39838;59.938;30.642;2022-09-01T13:42:32;3.45;;;1.30;;
48925;SDS011;39838;59.938;30.642;2022-09-01T13:44:59;2.42;;;1.60;;
48925;SDS011;39838;59.938;30.642;2022-09-01T13:47:28;5.30;;;1.85;;
48925;SDS011;39838;59.938;30.642;2022-09-01T13:49:55;3.88;;;1.75;;
48925;SDS011;39838;59.938;30.642;2022-09-01T13:52:22;1.40;;;1.30;;
48925;SDS011;39838;59.938;30.642;2022-09-01T13:54:52;3.92;;;1.38;;
48925;SDS011;39838;59.938;30.642;2022-09-01T13:57:19;2.67;;;1.45;;
48925;SDS011;39838;59.938;30.642;2022-09-01T13:59:46;1.92;;;1.30;;
48925;SDS011;39838;59.938;30.642;2022-09-01T14:02:13;2.78;;;1.38;;
48925;SDS011;39838;59.938;30.642;2022-09-01T14:04:42;2.17;;;1.25;;
48925;SDS011;39838;59.938;30.642;2022-09-01T14:07:09;2.10;;;1.10;;
48925;SDS011;39838;59.938;30.642;2022-09-01T14:09:36;2.25;;;1.55;;
48925;SDS011;39838;59.938;30.642;2022-09-01T14:12:04;2.60;;;1.38;;
48925;SDS011;39838;59.938;30.642;2022-09-01T14:14:32;1.90;;;1.20;;
48925;SDS011;39838;59.938;30.642;2022-09-01T14:16:59;2.10;;;1.25;;
48925;SDS011;39838;59.938;30.642;2022-09-01T14:19:28;6.07;;;1.33;;
48925;SDS011;39838;59.938;30.642;2022-09-01T14:21:56;3.63;;;1.50;;
48925;SDS011;39838;59.938;30.642;2022-09-01T14:24:24;1.95;;;1.20;;
48925;SDS011;39838;59.938;30.642;2022-09-01T14:26:52;2.92;;;1.33;;
48925;SDS011;39838;59.938;30.642;2022-09-01T14:29:19;4.50;;;1.42;;
48925;SDS011;39838;59.938;30.642;2022-09-01T14:31:46;1.48;;;1.10;;
48925;SDS011;39838;59.938;30.642;2022-09-01T14:34:14;1.80;;;1.27;;
48925;SDS011;39838;59.938;30.642;2022-09-01T14:36:43;1.48;;;1.00;;
48925;SDS011;39838;59.938;30.642;2022-09-01T14:39:13;1.92;;;1.00;;
48925;SDS011;39838;59.938;30.642;2022-09-01T14:41:40;2.95;;;1.10;;
48925;SDS011;39838;59.938;30.642;2022-09-01T14:44:07;1.60;;;1.20;;
48925;SDS011;39838;59.938;30.642;2022-09-01T14:46:34;1.48;;;0.95;;
48925;SDS011;39838;59.938;30.642;2022-09-01T14:49:01;1.17;;;1.08;;
48925;SDS011;39838;59.938;30.642;2022-09-01T14:51:30;1.25;;;1.10;;
48925;SDS011;39838;59.938;30.642;2022-09-01T14:53:57;2.80;;;1.30;;
48925;SDS011;39838;59.938;30.642;2022-09-01T14:56:26;1.40;;;1.30;;
48925;SDS011;39838;59.938;30.642;2022-09-01T14:58:54;4.18;;;1.20;;
48925;SDS011;39838;59.938;30.642;2022-09-01T15:01:24;2.58;;;1.27;;
48925;SDS011;39838;59.938;30.642;2022-09-01T15:03:56;1.38;;;1.20;;
48925;SDS011;39838;59.938;30.642;2022-09-01T15:06:24;1.50;;;1.40;;
48925;SDS011;39838;59.938;30.642;2022-09-01T15:08:52;3.38;;;1.80;;
48925;SDS011;39838;59.938;30.642;2022-09-01T15:11:19;2.80;;;1.40;;